createdAt,value
2018-09-18T00:00:16.981Z,19.36
2018-09-18T00:01:17.037Z,19.38
2018-09-18T00:02:17.105Z,19.42
2018-09-18T00:03:17.125Z,19.42
2018-09-18T00:04:17.539Z,19.36
2018-09-18T00:05:17.225Z,19.43
2018-09-18T00:06:17.273Z,19.39
2018-09-18T00:07:17.310Z,19.46
2018-09-18T00:08:17.363Z,19.38
2018-09-18T00:09:17.390Z,19.42
2018-09-18T00:10:17.415Z,19.46
2018-09-18T00:11:17.477Z,19.35
2018-09-18T00:12:17.518Z,19.33
2018-09-18T00:13:17.567Z,19.36
2018-09-18T00:14:17.594Z,19.38
2018-09-18T00:15:17.647Z,19.36
2018-09-18T00:16:17.716Z,19.47
2018-09-18T00:17:17.755Z,19.39
2018-09-18T00:18:17.794Z,19.38
2018-09-18T00:19:17.848Z,19.36
2018-09-18T00:20:17.905Z,19.40
2018-09-18T00:21:18.228Z,19.39
2018-09-18T00:22:17.976Z,19.42
2018-09-18T00:23:18.065Z,19.48
2018-09-18T00:24:18.112Z,19.38
2018-09-18T00:25:18.123Z,19.39
2018-09-18T00:26:18.319Z,19.42
2018-09-18T00:27:18.197Z,19.39
2018-09-18T00:28:18.264Z,19.39
2018-09-18T00:29:18.312Z,19.42
2018-09-18T00:30:18.360Z,19.38
2018-09-18T00:31:18.479Z,19.42
2018-09-18T00:32:18.455Z,19.47
2018-09-18T00:33:18.453Z,19.47
2018-09-18T00:34:18.538Z,19.43
2018-09-18T00:35:18.598Z,19.39
2018-09-18T00:36:18.700Z,19.40
2018-09-18T00:37:18.670Z,19.39
2018-09-18T00:38:18.698Z,19.39
2018-09-18T00:39:18.727Z,19.43
2018-09-18T00:40:18.809Z,19.29
2018-09-18T00:41:19.135Z,19.33
2018-09-18T00:42:18.865Z,19.31
2018-09-18T00:43:18.982Z,19.28
2018-09-18T00:44:19.018Z,19.38
2018-09-18T00:45:19.030Z,19.38
2018-09-18T00:46:19.119Z,19.40
2018-09-18T00:47:19.411Z,19.29
2018-09-18T00:48:19.114Z,19.38
2018-09-18T00:49:19.205Z,19.42
2018-09-18T00:50:19.228Z,19.40
2018-09-18T00:51:19.264Z,19.47
2018-09-18T00:52:19.421Z,19.43
2018-09-18T00:53:19.364Z,19.31
2018-09-18T00:54:19.410Z,19.28
2018-09-18T00:55:19.504Z,19.25
2018-09-18T00:56:19.493Z,19.29
2018-09-18T00:57:19.899Z,19.31
2018-09-18T00:58:19.602Z,19.28
2018-09-18T00:59:19.618Z,19.35
2018-09-18T01:00:19.708Z,19.33
2018-09-18T01:01:19.728Z,19.29
2018-09-18T01:02:19.901Z,19.28
2018-09-18T01:03:19.862Z,19.42
2018-09-18T01:04:19.890Z,19.36
2018-09-18T01:05:19.944Z,19.42
2018-09-18T01:06:20.005Z,19.36
2018-09-18T01:07:20.304Z,19.39
2018-09-18T01:08:20.033Z,19.40
2018-09-18T01:09:20.089Z,19.40
2018-09-18T01:10:20.114Z,19.35
2018-09-18T01:11:20.160Z,19.28
2018-09-18T01:12:20.298Z,19.28
2018-09-18T01:13:20.289Z,19.46
2018-09-18T01:14:20.344Z,19.36
2018-09-18T01:15:20.326Z,19.38
2018-09-18T01:16:20.381Z,19.47
2018-09-18T01:17:20.731Z,19.28
2018-09-18T01:18:20.481Z,19.36
2018-09-18T01:19:20.520Z,19.24
2018-09-18T01:20:20.588Z,19.33
2018-09-18T01:21:20.605Z,19.28
2018-09-18T01:22:20.767Z,19.35
2018-09-18T01:23:20.709Z,19.31
2018-09-18T01:24:20.743Z,19.31
2018-09-18T01:25:20.843Z,19.23
2018-09-18T01:26:20.835Z,19.23
2018-09-18T01:27:20.968Z,19.21
2018-09-18T01:28:20.916Z,19.33
2018-09-18T01:29:20.956Z,19.24
2018-09-18T01:30:21.030Z,19.32
2018-09-18T01:31:21.065Z,19.31
2018-09-18T01:32:21.377Z,19.29
2018-09-18T01:33:21.136Z,19.33
2018-09-18T01:34:21.191Z,19.23
2018-09-18T01:35:21.219Z,19.24
2018-09-18T01:36:21.285Z,19.25
2018-09-18T01:37:21.427Z,19.23
2018-09-18T01:38:21.380Z,19.23
2018-09-18T01:39:21.389Z,19.23
2018-09-18T01:40:21.452Z,19.32
2018-09-18T01:41:21.521Z,19.23
2018-09-18T01:42:21.875Z,19.31
2018-09-18T01:43:21.590Z,19.29
2018-09-18T01:44:21.653Z,19.14
2018-09-18T01:45:21.703Z,19.18
2018-09-18T01:46:21.729Z,19.24
2018-09-18T01:47:21.914Z,19.14
2018-09-18T01:48:21.827Z,19.17
2018-09-18T01:49:21.853Z,19.20
2018-09-18T01:50:21.898Z,19.18
2018-09-18T01:51:21.953Z,19.17
2018-09-18T01:52:22.298Z,19.24
2018-09-18T01:53:22.124Z,19.14
2018-09-18T01:54:22.113Z,19.20
2018-09-18T01:55:22.116Z,19.15
2018-09-18T01:56:22.177Z,19.18
2018-09-18T01:57:22.275Z,19.18
2018-09-18T01:58:22.506Z,19.28
2018-09-18T01:59:22.305Z,19.20
2018-09-18T02:00:22.332Z,19.23
2018-09-18T02:01:22.379Z,19.14
2018-09-18T02:02:22.480Z,19.28
2018-09-18T02:03:22.582Z,19.31
2018-09-18T02:04:22.505Z,19.29
2018-09-18T02:05:22.555Z,19.24
2018-09-18T02:06:22.632Z,19.25
2018-09-18T02:07:22.647Z,19.24
2018-09-18T02:08:22.951Z,19.24
2018-09-18T02:09:22.737Z,19.31
2018-09-18T02:10:22.848Z,19.18
2018-09-18T02:11:22.829Z,19.29
2018-09-18T02:12:22.880Z,19.33
2018-09-18T02:13:22.922Z,19.32
2018-09-18T02:14:23.218Z,19.29
2018-09-18T02:15:22.999Z,19.31
2018-09-18T02:16:23.072Z,19.28
2018-09-18T02:17:23.143Z,19.29
2018-09-18T02:18:23.151Z,19.29
2018-09-18T02:19:23.180Z,19.31
2018-09-18T02:20:23.498Z,19.31
2018-09-18T02:21:23.288Z,19.31
2018-09-18T02:22:23.295Z,19.29
2018-09-18T02:23:23.349Z,19.25
2018-09-18T02:24:23.389Z,19.25
2018-09-18T02:25:23.441Z,19.24
2018-09-18T02:26:23.813Z,19.29
2018-09-18T02:27:23.540Z,19.28
2018-09-18T02:28:23.572Z,19.21
2018-09-18T02:29:23.644Z,19.31
2018-09-18T02:30:23.670Z,19.21
2018-09-18T02:31:23.831Z,19.28
2018-09-18T02:32:23.813Z,19.28
2018-09-18T02:33:23.807Z,19.20
2018-09-18T02:34:23.853Z,19.25
2018-09-18T02:35:23.884Z,19.17
2018-09-18T02:36:24.299Z,19.18
2018-09-18T02:37:23.974Z,19.29
2018-09-18T02:38:24.045Z,19.15
2018-09-18T02:39:24.081Z,19.23
2018-09-18T02:40:24.133Z,19.23
2018-09-18T02:41:24.176Z,19.23
2018-09-18T02:42:24.204Z,19.21
2018-09-18T02:43:24.256Z,19.21
2018-09-18T02:44:24.297Z,19.29
2018-09-18T02:45:24.351Z,19.29
2018-09-18T02:46:24.383Z,19.28
2018-09-18T02:47:24.461Z,19.32
2018-09-18T02:48:24.475Z,19.31
2018-09-18T02:49:24.503Z,19.29
2018-09-18T02:50:24.583Z,19.33
2018-09-18T02:51:24.623Z,19.25
2018-09-18T02:52:24.634Z,19.33
2018-09-18T02:53:24.700Z,19.24
2018-09-18T02:54:24.749Z,19.32
2018-09-18T02:55:24.783Z,19.24
2018-09-18T02:56:24.836Z,19.23
2018-09-18T02:57:24.909Z,19.31
2018-09-18T02:58:24.912Z,19.18
2018-09-18T02:59:24.954Z,19.14
2018-09-18T03:00:24.987Z,19.14
2018-09-18T03:01:25.041Z,19.17
2018-09-18T03:02:25.321Z,19.17
2018-09-18T03:03:25.144Z,19.15
2018-09-18T03:04:25.215Z,19.08
2018-09-18T03:05:25.234Z,19.06
2018-09-18T03:06:25.316Z,19.11
2018-09-18T03:07:25.416Z,19.05
2018-09-18T03:08:25.361Z,18.95
2018-09-18T03:09:25.399Z,18.97
2018-09-18T03:10:25.493Z,18.98
2018-09-18T03:11:25.651Z,18.91
2018-09-18T03:12:25.820Z,18.98
2018-09-18T03:13:25.595Z,18.94
2018-09-18T03:14:25.637Z,18.87
2018-09-18T03:15:25.678Z,18.92
2018-09-18T03:16:25.702Z,18.90
2018-09-18T03:17:25.750Z,18.95
2018-09-18T03:18:26.046Z,18.99
2018-09-18T03:19:25.847Z,18.95
2018-09-18T03:20:25.926Z,18.95
2018-09-18T03:21:25.940Z,18.97
2018-09-18T03:22:25.962Z,18.98
2018-09-18T03:23:26.024Z,19.10
2018-09-18T03:24:26.175Z,19.06
2018-09-18T03:25:26.104Z,19.08
2018-09-18T03:26:26.144Z,19.05
2018-09-18T03:27:26.382Z,19.17
2018-09-18T03:28:26.224Z,19.10
2018-09-18T03:29:26.297Z,19.14
2018-09-18T03:30:26.565Z,19.14
2018-09-18T03:31:26.376Z,19.20
2018-09-18T03:32:26.423Z,19.17
2018-09-18T03:33:26.462Z,19.14
2018-09-18T03:34:26.517Z,19.20
2018-09-18T03:35:26.544Z,19.14
2018-09-18T03:36:26.703Z,19.17
2018-09-18T03:37:26.637Z,19.20
2018-09-18T03:38:26.682Z,19.23
2018-09-18T03:39:26.728Z,19.20
2018-09-18T03:40:26.772Z,19.15
2018-09-18T03:41:26.782Z,19.18
2018-09-18T03:42:26.962Z,19.17
2018-09-18T03:43:26.893Z,19.23
2018-09-18T03:44:26.946Z,19.23
2018-09-18T03:45:26.973Z,19.17
2018-09-18T03:46:27.019Z,19.17
2018-09-18T03:47:27.355Z,19.21
2018-09-18T03:48:27.118Z,19.24
2018-09-18T03:49:27.175Z,19.20
2018-09-18T03:50:27.234Z,19.21
2018-09-18T03:51:27.247Z,19.18
2018-09-18T03:52:27.431Z,19.21
2018-09-18T03:53:27.336Z,19.18
2018-09-18T03:54:27.404Z,19.18
2018-09-18T03:55:27.465Z,19.15
2018-09-18T03:56:27.465Z,19.18
2018-09-18T03:57:27.550Z,19.20
2018-09-18T03:58:27.657Z,19.14
2018-09-18T03:59:27.645Z,19.17
2018-09-18T04:00:27.657Z,19.24
2018-09-18T04:01:27.690Z,19.18
2018-09-18T04:02:27.739Z,19.20
2018-09-18T04:03:27.788Z,19.17
2018-09-18T04:04:27.980Z,19.17
2018-09-18T04:05:27.865Z,19.24
2018-09-18T04:06:27.904Z,19.17
2018-09-18T04:07:27.958Z,19.13
2018-09-18T04:08:27.994Z,19.15
2018-09-18T04:09:28.061Z,19.15
2018-09-18T04:10:28.361Z,19.18
2018-09-18T04:11:28.138Z,19.23
2018-09-18T04:12:28.187Z,19.17
2018-09-18T04:13:28.245Z,19.25
2018-09-18T04:14:28.257Z,19.31
2018-09-18T04:15:28.316Z,19.25
2018-09-18T04:16:28.473Z,19.23
2018-09-18T04:17:28.532Z,19.33
2018-09-18T04:18:28.431Z,19.28
2018-09-18T04:19:28.498Z,19.31
2018-09-18T04:20:28.542Z,19.31
2018-09-18T04:21:28.845Z,19.33
2018-09-18T04:22:28.651Z,19.28
2018-09-18T04:23:28.669Z,19.29
2018-09-18T04:24:28.731Z,19.35
2018-09-18T04:25:28.770Z,19.35
2018-09-18T04:26:28.820Z,19.31
2018-09-18T04:27:28.851Z,19.32
2018-09-18T04:28:28.875Z,19.29
2018-09-18T04:29:28.947Z,19.33
2018-09-18T04:30:28.995Z,19.32
2018-09-18T04:31:29.032Z,19.29
2018-09-18T04:32:29.149Z,19.31
2018-09-18T04:33:29.150Z,19.31
2018-09-18T04:34:29.165Z,19.31
2018-09-18T04:35:29.190Z,19.35
2018-09-18T04:36:29.246Z,19.33
2018-09-18T04:37:29.541Z,19.28
2018-09-18T04:38:29.356Z,19.35
2018-09-18T04:39:29.372Z,19.24
2018-09-18T04:40:29.404Z,19.32
2018-09-18T04:41:29.488Z,19.23
2018-09-18T04:42:29.500Z,19.32
2018-09-18T04:43:29.656Z,19.28
2018-09-18T04:44:29.609Z,19.33
2018-09-18T04:45:29.655Z,19.35
2018-09-18T04:46:29.735Z,19.31
2018-09-18T04:47:29.731Z,19.32
2018-09-18T04:48:29.779Z,19.29
2018-09-18T04:49:30.137Z,19.31
2018-09-18T04:50:29.884Z,19.35
2018-09-18T04:51:29.904Z,19.31
2018-09-18T04:52:29.996Z,19.32
2018-09-18T04:53:30.010Z,19.35
2018-09-18T04:54:30.046Z,19.28
2018-09-18T04:55:30.092Z,19.33
2018-09-18T04:56:30.171Z,19.38
2018-09-18T04:57:30.193Z,19.28
2018-09-18T04:58:30.223Z,19.32
2018-09-18T04:59:30.274Z,19.35
2018-09-18T05:00:30.503Z,19.28
2018-09-18T05:01:30.346Z,19.32
2018-09-18T05:02:30.426Z,19.32
2018-09-18T05:03:30.475Z,19.35
2018-09-18T05:04:30.510Z,19.35
2018-09-18T05:05:30.882Z,19.35
2018-09-18T05:06:30.590Z,19.31
2018-09-18T05:07:30.645Z,19.38
2018-09-18T05:08:30.683Z,19.33
2018-09-18T05:09:30.715Z,19.33
2018-09-18T05:10:30.769Z,19.31
2018-09-18T05:11:30.917Z,19.31
2018-09-18T05:12:30.860Z,19.33
2018-09-18T05:13:30.898Z,19.29
2018-09-18T05:14:30.920Z,19.28
2018-09-18T05:15:30.967Z,19.31
2018-09-18T05:16:31.272Z,19.33
2018-09-18T05:17:31.066Z,19.32
2018-09-18T05:18:31.118Z,19.33
2018-09-18T05:19:31.173Z,19.23
2018-09-18T05:20:31.273Z,19.33
2018-09-18T05:21:31.330Z,19.38
2018-09-18T05:22:31.341Z,19.33
2018-09-18T05:23:31.354Z,19.29
2018-09-18T05:24:31.372Z,19.31
2018-09-18T05:25:31.437Z,19.31
2018-09-18T05:26:31.473Z,19.33
2018-09-18T05:27:31.606Z,19.35
2018-09-18T05:28:31.562Z,19.36
2018-09-18T05:29:31.613Z,19.31
2018-09-18T05:30:31.649Z,19.31
2018-09-18T05:31:31.676Z,19.35
2018-09-18T05:32:32.083Z,19.33
2018-09-18T05:33:31.817Z,19.38
2018-09-18T05:34:31.846Z,19.35
2018-09-18T05:35:31.888Z,19.35
2018-09-18T05:36:31.952Z,19.35
2018-09-18T05:37:32.005Z,19.28
2018-09-18T05:38:32.080Z,19.32
2018-09-18T05:39:32.065Z,19.35
2018-09-18T05:40:32.108Z,19.33
2018-09-18T05:41:32.146Z,19.33
2018-09-18T05:42:32.203Z,19.32
2018-09-18T05:43:32.479Z,19.35
2018-09-18T05:44:32.318Z,19.28
2018-09-18T05:45:32.342Z,19.36
2018-09-18T05:46:32.366Z,19.23
2018-09-18T05:47:32.392Z,19.32
2018-09-18T05:48:32.560Z,19.32
2018-09-18T05:49:32.512Z,19.33
2018-09-18T05:50:32.539Z,19.35
2018-09-18T05:51:32.588Z,19.35
2018-09-18T05:52:32.609Z,19.35
2018-09-18T05:53:32.924Z,19.33
2018-09-18T05:54:32.708Z,19.38
2018-09-18T05:55:32.768Z,19.31
2018-09-18T05:56:32.807Z,19.29
2018-09-18T05:57:32.861Z,19.31
2018-09-18T05:58:32.888Z,19.23
2018-09-18T05:59:33.075Z,19.35
2018-09-18T06:00:32.994Z,19.29
2018-09-18T06:01:33.024Z,19.28
2018-09-18T06:02:33.059Z,19.35
2018-09-18T06:03:33.093Z,19.28
2018-09-18T06:04:33.152Z,19.36
2018-09-18T06:05:33.315Z,19.29
2018-09-18T06:06:33.231Z,19.33
2018-09-18T06:07:33.291Z,19.33
2018-09-18T06:08:33.397Z,19.28
2018-09-18T06:09:33.364Z,19.31
2018-09-18T06:10:33.436Z,19.33
2018-09-18T06:11:33.722Z,19.25
2018-09-18T06:12:33.538Z,19.35
2018-09-18T06:13:33.559Z,19.28
2018-09-18T06:14:33.645Z,19.29
2018-09-18T06:15:33.662Z,19.25
2018-09-18T06:16:33.717Z,19.25
2018-09-18T06:17:34.139Z,19.32
2018-09-18T06:18:33.838Z,19.42
2018-09-18T06:19:33.831Z,19.36
2018-09-18T06:20:33.862Z,19.39
2018-09-18T06:21:33.918Z,19.33
2018-09-18T06:22:34.062Z,19.23
2018-09-18T06:23:34.002Z,19.33
2018-09-18T06:24:34.054Z,19.33
2018-09-18T06:25:34.100Z,19.35
2018-09-18T06:26:34.130Z,19.36
2018-09-18T06:27:34.445Z,19.25
2018-09-18T06:28:34.225Z,19.31
2018-09-18T06:29:34.271Z,19.32
2018-09-18T06:30:34.293Z,19.32
2018-09-18T06:31:34.363Z,19.29
2018-09-18T06:32:34.379Z,19.31
2018-09-18T06:33:34.582Z,19.31
2018-09-18T06:34:34.471Z,19.31
2018-09-18T06:35:34.544Z,19.35
2018-09-18T06:36:34.590Z,19.38
2018-09-18T06:37:34.620Z,19.36
2018-09-18T06:38:34.666Z,19.32
2018-09-18T06:39:34.722Z,19.28
2018-09-18T06:40:34.747Z,19.29
2018-09-18T06:41:34.786Z,19.33
2018-09-18T06:42:34.862Z,19.35
2018-09-18T06:43:34.882Z,19.24
2018-09-18T06:44:35.224Z,19.35
2018-09-18T06:45:34.995Z,19.29
2018-09-18T06:46:35.019Z,19.29
2018-09-18T06:47:35.070Z,19.25
2018-09-18T06:48:35.106Z,19.36
2018-09-18T06:49:35.262Z,19.33
2018-09-18T06:50:35.204Z,19.33
2018-09-18T06:51:35.264Z,19.23
2018-09-18T06:52:35.297Z,19.25
2018-09-18T06:53:35.377Z,19.33
2018-09-18T06:54:35.789Z,19.38
2018-09-18T06:55:35.413Z,19.35
2018-09-18T06:56:35.475Z,19.38
2018-09-18T06:57:35.517Z,19.36
2018-09-18T06:58:35.539Z,19.33
2018-09-18T06:59:35.594Z,19.25
2018-09-18T07:00:35.745Z,19.29
2018-09-18T07:01:35.732Z,19.35
2018-09-18T07:02:35.765Z,19.24
2018-09-18T07:03:35.803Z,19.29
2018-09-18T07:04:35.814Z,19.39
2018-09-18T07:05:36.170Z,19.25
2018-09-18T07:06:35.907Z,19.32
2018-09-18T07:07:35.950Z,19.36
2018-09-18T07:08:36.043Z,19.42
2018-09-18T07:09:36.037Z,19.36
2018-09-18T07:10:36.180Z,19.31
2018-09-18T07:11:36.126Z,19.42
2018-09-18T07:12:36.167Z,19.31
2018-09-18T07:13:36.263Z,19.43
2018-09-18T07:14:36.256Z,19.23
2018-09-18T07:15:36.610Z,19.28
2018-09-18T07:16:36.357Z,19.31
2018-09-18T07:17:36.403Z,19.35
2018-09-18T07:18:36.442Z,19.29
2018-09-18T07:19:36.547Z,19.29
2018-09-18T07:20:36.509Z,19.25
2018-09-18T07:21:36.879Z,19.31
2018-09-18T07:22:36.638Z,19.43
2018-09-18T07:23:36.640Z,19.28
2018-09-18T07:24:36.694Z,19.40
2018-09-18T07:25:36.790Z,19.39
2018-09-18T07:26:37.052Z,19.23
2018-09-18T07:27:36.841Z,19.40
2018-09-18T07:28:36.870Z,19.42
2018-09-18T07:29:36.938Z,19.29
2018-09-18T07:30:36.969Z,19.32
2018-09-18T07:31:37.060Z,19.33
2018-09-18T07:32:37.344Z,19.32
2018-09-18T07:33:37.116Z,19.38
2018-09-18T07:34:37.137Z,19.24
2018-09-18T07:35:37.183Z,19.33
2018-09-18T07:36:37.231Z,19.35
2018-09-18T07:37:37.267Z,19.36
2018-09-18T07:38:37.466Z,19.28
2018-09-18T07:39:37.344Z,19.32
2018-09-18T07:40:37.418Z,19.31
2018-09-18T07:41:37.457Z,19.31
2018-09-18T07:42:37.491Z,19.35
2018-09-18T07:43:37.557Z,19.33
2018-09-18T07:44:37.846Z,19.31
2018-09-18T07:45:37.687Z,19.33
2018-09-18T07:46:37.673Z,19.32
2018-09-18T07:47:37.726Z,19.32
2018-09-18T07:48:37.760Z,19.35
2018-09-18T07:49:37.828Z,19.29
2018-09-18T07:50:37.869Z,19.29
2018-09-18T07:51:37.876Z,19.21
2018-09-18T07:52:37.958Z,19.25
2018-09-18T07:53:37.996Z,19.43
2018-09-18T07:54:38.084Z,19.33
2018-09-18T07:55:38.177Z,19.32
2018-09-18T07:56:38.119Z,19.33
2018-09-18T07:57:38.174Z,19.36
2018-09-18T07:58:38.206Z,19.24
2018-09-18T07:59:38.249Z,19.24
2018-09-18T08:00:38.587Z,19.25
2018-09-18T08:01:38.392Z,19.33
2018-09-18T08:02:38.419Z,19.31
2018-09-18T08:03:38.446Z,19.33
2018-09-18T08:04:38.478Z,19.32
2018-09-18T08:05:38.526Z,19.38
2018-09-18T08:06:38.797Z,19.31
2018-09-18T08:07:38.649Z,19.28
2018-09-18T08:08:38.668Z,19.28
2018-09-18T08:09:38.716Z,19.28
2018-09-18T08:10:38.736Z,19.39
2018-09-18T08:11:39.134Z,19.42
2018-09-18T08:12:38.843Z,19.35
2018-09-18T08:13:38.859Z,19.25
2018-09-18T08:14:38.919Z,19.23
2018-09-18T08:15:38.943Z,19.31
2018-09-18T08:16:39.316Z,19.39
2018-09-18T08:17:39.046Z,19.35
2018-09-18T08:18:39.137Z,19.28
2018-09-18T08:19:39.271Z,19.35
2018-09-18T08:20:39.157Z,19.31
2018-09-18T08:21:39.270Z,19.35
2018-09-18T08:22:39.284Z,19.20
2018-09-18T08:23:39.345Z,19.35
2018-09-18T08:24:39.348Z,19.25
2018-09-18T08:25:39.506Z,19.21
2018-09-18T08:26:39.415Z,19.33
2018-09-18T08:27:39.486Z,19.32
2018-09-18T08:28:39.536Z,19.33
2018-09-18T08:29:39.568Z,19.28
2018-09-18T08:30:39.608Z,19.25
2018-09-18T08:31:39.678Z,19.32
2018-09-18T08:32:39.850Z,19.31
2018-09-18T08:33:39.747Z,19.29
2018-09-18T08:34:39.771Z,19.32
2018-09-18T08:35:39.836Z,19.31
2018-09-18T08:36:39.873Z,19.31
2018-09-18T08:37:40.040Z,19.35
2018-09-18T08:38:39.952Z,19.31
2018-09-18T08:39:40.070Z,19.31
2018-09-18T08:40:40.059Z,19.25
2018-09-18T08:41:40.125Z,19.31
2018-09-18T08:42:40.148Z,19.31
2018-09-18T08:43:40.287Z,19.36
2018-09-18T08:44:40.214Z,19.32
2018-09-18T08:45:40.311Z,19.28
2018-09-18T08:46:40.307Z,19.29
2018-09-18T08:47:40.363Z,19.28
2018-09-18T08:48:40.671Z,19.29
2018-09-18T08:49:40.550Z,19.31
2018-09-18T08:50:40.529Z,19.29
2018-09-18T08:51:40.629Z,19.35
2018-09-18T08:52:40.590Z,19.29
2018-09-18T08:53:40.612Z,19.35
2018-09-18T08:54:40.783Z,19.25
2018-09-18T08:55:40.716Z,19.32
2018-09-18T08:56:40.774Z,19.33
2018-09-18T08:57:40.844Z,19.29
2018-09-18T08:58:40.869Z,19.35
2018-09-18T08:59:40.896Z,19.32
2018-09-18T09:00:41.215Z,19.29
2018-09-18T09:01:41.028Z,19.33
2018-09-18T09:02:41.040Z,19.36
2018-09-18T09:03:41.118Z,19.31
2018-09-18T09:04:41.143Z,19.36
2018-09-18T09:05:41.202Z,19.31
2018-09-18T09:06:41.338Z,19.35
2018-09-18T09:07:41.309Z,19.35
2018-09-18T09:08:41.418Z,19.25
2018-09-18T09:09:41.397Z,19.31
2018-09-18T09:10:41.397Z,19.21
2018-09-18T09:11:41.439Z,19.33
2018-09-18T09:12:41.552Z,19.39
2018-09-18T09:13:41.505Z,19.35
2018-09-18T09:14:41.653Z,19.31
2018-09-18T09:15:41.636Z,19.43
2018-09-18T09:16:41.674Z,19.28
2018-09-18T09:17:41.811Z,19.43
2018-09-18T09:18:41.770Z,19.40
2018-09-18T09:19:41.818Z,19.25
2018-09-18T09:20:41.836Z,19.39
2018-09-18T09:21:41.901Z,19.29
2018-09-18T09:22:42.245Z,19.25
2018-09-18T09:23:41.973Z,19.36
2018-09-18T09:24:42.002Z,19.36
2018-09-18T09:25:42.109Z,19.40
2018-09-18T09:26:42.235Z,19.36
2018-09-18T09:27:42.242Z,19.38
2018-09-18T09:28:42.305Z,19.36
2018-09-18T09:29:42.308Z,19.43
2018-09-18T09:30:42.289Z,19.38
2018-09-18T09:31:42.328Z,19.33
2018-09-18T09:32:42.373Z,19.36
2018-09-18T09:33:42.387Z,19.39
2018-09-18T09:34:42.698Z,19.39
2018-09-18T09:35:42.492Z,19.47
2018-09-18T09:36:42.579Z,19.39
2018-09-18T09:37:42.571Z,19.40
2018-09-18T09:38:42.640Z,19.43
2018-09-18T09:39:42.676Z,19.39
2018-09-18T09:40:42.812Z,19.40
2018-09-18T09:41:42.774Z,19.40
2018-09-18T09:42:42.814Z,19.40
2018-09-18T09:43:42.910Z,19.40
2018-09-18T09:44:42.935Z,19.40
2018-09-18T09:45:43.034Z,19.46
2018-09-18T09:46:43.033Z,19.42
2018-09-18T09:47:43.010Z,19.42
2018-09-18T09:48:43.081Z,19.46
2018-09-18T09:49:43.123Z,19.46
2018-09-18T09:51:43.418Z,19.46
2018-09-18T09:52:43.246Z,19.43
2018-09-18T09:53:43.301Z,19.42
2018-09-18T09:54:43.340Z,19.55
2018-09-18T09:55:43.377Z,19.55
2018-09-18T09:56:43.745Z,19.60
2018-09-18T09:57:43.488Z,19.66
2018-09-18T09:58:43.565Z,19.61
2018-09-18T09:59:43.559Z,19.65
2018-09-18T10:00:43.610Z,19.65
2018-09-18T10:01:43.647Z,19.65
2018-09-18T10:02:43.845Z,19.61
2018-09-18T10:03:43.756Z,19.63
2018-09-18T10:04:43.798Z,19.63
2018-09-18T10:05:43.820Z,19.68
2018-09-18T10:06:43.884Z,19.65
2018-09-18T10:07:43.928Z,19.63
2018-09-18T10:08:43.985Z,19.63
2018-09-18T10:09:44.037Z,19.68
2018-09-18T10:10:44.158Z,19.72
2018-09-18T10:11:44.113Z,19.69
2018-09-18T10:12:44.199Z,19.72
2018-09-18T10:13:44.511Z,19.73
2018-09-18T10:14:44.257Z,19.78
2018-09-18T10:15:44.384Z,19.83
2018-09-18T10:16:44.328Z,19.91
2018-09-18T10:17:44.482Z,19.98
2018-09-18T10:18:44.416Z,20.13
2018-09-18T10:19:44.480Z,20.15
2018-09-18T10:20:44.554Z,20.21
2018-09-18T10:21:44.561Z,20.27
2018-09-18T10:22:44.594Z,20.30
2018-09-18T10:23:44.635Z,20.30
2018-09-18T10:24:44.788Z,20.38
2018-09-18T10:25:44.773Z,20.34
2018-09-18T10:26:44.807Z,20.35
2018-09-18T10:27:44.837Z,20.46
2018-09-18T10:28:44.942Z,20.42
2018-09-18T10:29:45.039Z,20.46
2018-09-18T10:30:44.999Z,20.49
2018-09-18T10:31:45.013Z,20.53
2018-09-18T10:32:45.069Z,20.51
2018-09-18T10:33:45.100Z,20.61
2018-09-18T10:34:45.165Z,20.69
2018-09-18T10:35:45.254Z,20.62
2018-09-18T10:36:45.252Z,20.68
2018-09-18T10:37:45.303Z,20.69
2018-09-18T10:38:45.368Z,20.68
2018-09-18T10:39:45.437Z,20.69
2018-09-18T10:40:45.568Z,20.66
2018-09-18T10:41:45.562Z,20.62
2018-09-18T10:42:45.530Z,20.64
2018-09-18T10:43:45.567Z,20.62
2018-09-18T10:44:45.656Z,20.68
2018-09-18T10:45:45.695Z,20.56
2018-09-18T10:46:45.736Z,20.65
2018-09-18T10:47:45.762Z,20.56
2018-09-18T10:48:45.836Z,20.65
2018-09-18T10:49:45.822Z,20.66
2018-09-18T10:50:45.883Z,20.77
2018-09-18T10:51:46.015Z,20.93
2018-09-18T10:52:46.016Z,20.99
2018-09-18T10:53:46.017Z,20.91
2018-09-18T10:54:46.061Z,20.90
2018-09-18T10:55:46.117Z,20.99
2018-09-18T10:56:46.484Z,21.01
2018-09-18T10:57:46.227Z,20.96
2018-09-18T10:58:46.283Z,20.89
2018-09-18T10:59:46.318Z,20.84
2018-09-18T11:00:46.332Z,20.80
2018-09-18T11:01:46.535Z,20.66
2018-09-18T11:02:46.467Z,20.68
2018-09-18T11:03:46.491Z,20.56
2018-09-18T11:04:46.542Z,20.56
2018-09-18T11:05:46.599Z,20.46
2018-09-18T11:06:46.630Z,20.51
2018-09-18T11:07:46.842Z,20.53
2018-09-18T11:08:46.750Z,20.49
2018-09-18T11:09:46.867Z,20.43
2018-09-18T11:10:46.854Z,20.46
2018-09-18T11:11:46.880Z,20.43
2018-09-18T11:12:47.034Z,20.54
2018-09-18T11:13:46.975Z,20.51
2018-09-18T11:14:47.089Z,20.43
2018-09-18T11:15:47.085Z,20.43
2018-09-18T11:16:47.209Z,20.49
2018-09-18T11:17:47.240Z,20.38
2018-09-18T11:18:47.229Z,20.38
2018-09-18T11:19:47.226Z,20.39
2018-09-18T11:20:47.273Z,20.35
2018-09-18T11:21:47.412Z,20.35
2018-09-18T11:22:47.397Z,20.38
2018-09-18T11:23:47.687Z,20.38
2018-09-18T11:24:47.539Z,20.38
2018-09-18T11:25:47.531Z,20.31
2018-09-18T11:26:47.561Z,20.49
2018-09-18T11:27:47.620Z,20.47
2018-09-18T11:28:47.693Z,20.51
2018-09-18T11:29:47.697Z,20.56
2018-09-18T11:30:47.711Z,20.54
2018-09-18T11:31:47.794Z,20.61
2018-09-18T11:32:47.924Z,20.66
2018-09-18T11:33:47.888Z,20.79
2018-09-18T11:34:47.898Z,20.83
2018-09-18T11:35:48.005Z,21.01
2018-09-18T11:36:47.997Z,21.09
2018-09-18T11:37:48.069Z,21.04
2018-09-18T11:38:48.126Z,21.02
2018-09-18T11:39:48.256Z,20.96
2018-09-18T11:40:48.207Z,21.01
2018-09-18T11:41:48.251Z,21.13
2018-09-18T11:42:48.290Z,21.09
2018-09-18T11:43:48.381Z,21.29
2018-09-18T11:44:48.475Z,21.35
2018-09-18T11:45:48.622Z,21.39
2018-09-18T11:46:48.622Z,21.44
2018-09-18T11:47:48.529Z,21.48
2018-09-18T11:48:48.572Z,21.50
2018-09-18T11:49:48.627Z,21.42
2018-09-18T11:50:48.770Z,21.41
2018-09-18T11:51:48.733Z,21.38
2018-09-18T11:52:48.798Z,21.41
2018-09-18T11:53:48.805Z,21.35
2018-09-18T11:54:48.837Z,21.39
2018-09-18T11:55:48.918Z,21.41
2018-09-18T11:56:49.135Z,21.44
2018-09-18T11:57:48.979Z,21.41
2018-09-18T11:58:49.040Z,21.38
2018-09-18T11:59:49.076Z,21.51
2018-09-18T12:00:49.135Z,21.57
2018-09-18T12:01:49.187Z,21.57
2018-09-18T12:02:49.497Z,21.50
2018-09-18T12:03:49.263Z,21.60
2018-09-18T12:04:49.443Z,21.60
2018-09-18T12:05:49.373Z,21.64
2018-09-18T12:06:49.405Z,21.78
2018-09-18T12:07:49.743Z,21.82
2018-09-18T12:08:49.617Z,21.78
2018-09-18T12:09:49.578Z,21.78
2018-09-18T12:10:49.657Z,21.76
2018-09-18T12:11:49.667Z,21.59
2018-09-18T12:12:49.723Z,21.57
2018-09-18T12:13:49.758Z,21.51
2018-09-18T12:14:49.802Z,21.46
2018-09-18T12:15:49.865Z,21.24
2018-09-18T12:16:49.887Z,21.38
2018-09-18T12:17:49.940Z,21.32
2018-09-18T12:18:49.989Z,21.27
2018-09-18T12:19:50.020Z,21.24
2018-09-18T12:20:50.082Z,21.24
2018-09-18T12:21:50.132Z,21.30
2018-09-18T12:22:50.329Z,21.32
2018-09-18T12:23:50.234Z,21.38
2018-09-18T12:24:50.276Z,21.48
2018-09-18T12:25:50.321Z,21.44
2018-09-18T12:26:50.362Z,21.59
2018-09-18T12:27:50.442Z,21.67
2018-09-18T12:28:50.467Z,21.81
2018-09-18T12:29:50.497Z,21.81
2018-09-18T12:30:50.555Z,21.98
2018-09-18T12:31:50.587Z,22.04
2018-09-18T12:32:50.641Z,22.07
2018-09-18T12:33:50.700Z,22.01
2018-09-18T12:34:50.728Z,22.12
2018-09-18T12:35:50.957Z,22.02
2018-09-18T12:36:50.900Z,22.22
2018-09-18T12:37:50.945Z,22.23
2018-09-18T12:38:51.074Z,22.38
2018-09-18T12:39:50.986Z,22.60
2018-09-18T12:40:51.085Z,22.69
2018-09-18T12:41:51.093Z,22.97
2018-09-18T12:42:51.298Z,22.99
2018-09-18T12:43:51.191Z,22.84
2018-09-18T12:44:51.231Z,22.94
2018-09-18T12:45:51.285Z,22.84
2018-09-18T12:46:51.315Z,22.87
2018-09-18T12:47:51.433Z,22.87
2018-09-18T12:48:51.474Z,22.89
2018-09-18T12:49:51.887Z,22.80
2018-09-18T12:50:51.534Z,22.69
2018-09-18T12:51:51.567Z,22.65
2018-09-18T12:52:51.625Z,22.71
2018-09-18T12:53:51.760Z,22.89